sensor_id;sensor_type;location;lat;lon;timestamp;pressure;altitude;pressure_sealevel;temperature;humidity
15314;BME280;7757;52.626;4.746;2023-05-27T00:00:13;102950.69;;;16.73;59.32
15314;BME280;7757;52.626;4.746;2023-05-27T00:02:40;102944.38;;;16.89;59.19
15314;BME280;7757;52.626;4.746;2023-05-27T00:05:06;102925.34;;;16.74;58.64
15314;BME280;7757;52.626;4.746;2023-05-27T00:07:31;102933.59;;;16.81;58.68
15314;BME280;7757;52.626;4.746;2023-05-27T00:09:59;102934.28;;;16.83;59.04
15314;BME280;7757;52.626;4.746;2023-05-27T00:12:25;102933.38;;;16.90;58.56
15314;BME280;7757;52.626;4.746;2023-05-27T00:14:50;102924.53;;;16.65;59.08
15314;BME280;7757;52.626;4.746;2023-05-27T00:17:16;102935.97;;;16.76;59.53
15314;BME280;7757;52.626;4.746;2023-05-27T00:19:42;102932.63;;;16.65;58.99
15314;BME280;7757;52.626;4.746;2023-05-27T00:22:08;102921.53;;;16.60;59.20
15314;BME280;7757;52.626;4.746;2023-05-27T00:24:34;102940.59;;;16.67;59.18
15314;BME280;7757;52.626;4.746;2023-05-27T00:27:05;102943.44;;;16.73;59.37
15314;BME280;7757;52.626;4.746;2023-05-27T00:29:31;102947.31;;;16.71;59.70
15314;BME280;7757;52.626;4.746;2023-05-27T00:31:57;102940.53;;;16.75;59.51
15314;BME280;7757;52.626;4.746;2023-05-27T00:34:22;102940.72;;;16.73;59.35
15314;BME280;7757;52.626;4.746;2023-05-27T00:36:48;102945.13;;;16.66;59.88
15314;BME280;7757;52.626;4.746;2023-05-27T00:39:13;102926.91;;;16.60;59.81
15314;BME280;7757;52.626;4.746;2023-05-27T00:41:43;102938.56;;;16.61;59.35
15314;BME280;7757;52.626;4.746;2023-05-27T00:44:12;102908.91;;;16.37;59.81
15314;BME280;7757;52.626;4.746;2023-05-27T00:46:41;102926.94;;;16.52;59.75
15314;BME280;7757;52.626;4.746;2023-05-27T00:49:06;102935.56;;;16.56;59.28
15314;BME280;7757;52.626;4.746;2023-05-27T00:51:35;102939.59;;;16.52;60.05
15314;BME280;7757;52.626;4.746;2023-05-27T00:54:05;102931.31;;;16.45;59.42
15314;BME280;7757;52.626;4.746;2023-05-27T00:56:31;102941.59;;;16.66;59.79
15314;BME280;7757;52.626;4.746;2023-05-27T00:59:00;102937.41;;;16.55;59.83
15314;BME280;7757;52.626;4.746;2023-05-27T01:01:25;102899.28;;;16.34;59.55
15314;BME280;7757;52.626;4.746;2023-05-27T01:03:51;102934.00;;;16.53;60.21
15314;BME280;7757;52.626;4.746;2023-05-27T01:06:31;102932.31;;;16.52;59.51
15314;BME280;7757;52.626;4.746;2023-05-27T01:09:09;102934.06;;;16.37;59.78
15314;BME280;7757;52.626;4.746;2023-05-27T01:11:43;102931.81;;;16.49;59.84
15314;BME280;7757;52.626;4.746;2023-05-27T01:14:11;102930.31;;;16.46;59.92
15314;BME280;7757;52.626;4.746;2023-05-27T01:16:39;102919.03;;;16.35;59.85
15314;BME280;7757;52.626;4.746;2023-05-27T01:19:27;102925.41;;;16.42;59.73
15314;BME280;7757;52.626;4.746;2023-05-27T01:21:57;102930.63;;;16.51;59.42
15314;BME280;7757;52.626;4.746;2023-05-27T01:24:23;102923.75;;;16.41;60.20
15314;BME280;7757;52.626;4.746;2023-05-27T01:26:49;102923.91;;;16.47;59.83
15314;BME280;7757;52.626;4.746;2023-05-27T01:29:14;102904.38;;;16.29;60.49
15314;BME280;7757;52.626;4.746;2023-05-27T01:31:41;102930.00;;;16.41;59.79
15314;BME280;7757;52.626;4.746;2023-05-27T01:34:09;102913.66;;;16.35;60.34
15314;BME280;7757;52.626;4.746;2023-05-27T01:37:02;102918.84;;;16.36;59.75
15314;BME280;7757;52.626;4.746;2023-05-27T01:39:37;102918.66;;;16.46;60.24
15314;BME280;7757;52.626;4.746;2023-05-27T01:42:03;102889.03;;;16.22;60.13
15314;BME280;7757;52.626;4.746;2023-05-27T01:44:32;102909.22;;;16.42;60.00
15314;BME280;7757;52.626;4.746;2023-05-27T01:47:01;102895.59;;;16.27;60.46
15314;BME280;7757;52.626;4.746;2023-05-27T01:49:30;102894.09;;;16.25;60.28
15314;BME280;7757;52.626;4.746;2023-05-27T01:51:56;102900.31;;;16.25;60.59
15314;BME280;7757;52.626;4.746;2023-05-27T01:54:21;102913.13;;;16.31;59.88
15314;BME280;7757;52.626;4.746;2023-05-27T01:56:50;102892.69;;;16.37;59.76
15314;BME280;7757;52.626;4.746;2023-05-27T01:59:18;102885.47;;;16.21;60.32
15314;BME280;7757;52.626;4.746;2023-05-27T02:01:47;102902.50;;;16.30;60.55
15314;BME280;7757;52.626;4.746;2023-05-27T02:04:13;102890.03;;;16.29;60.49
15314;BME280;7757;52.626;4.746;2023-05-27T02:06:41;102902.84;;;16.35;60.57
15314;BME280;7757;52.626;4.746;2023-05-27T02:09:06;102910.78;;;16.28;59.64
15314;BME280;7757;52.626;4.746;2023-05-27T02:11:32;102910.94;;;16.35;59.72
15314;BME280;7757;52.626;4.746;2023-05-27T02:14:00;102910.13;;;16.26;60.16
15314;BME280;7757;52.626;4.746;2023-05-27T02:16:29;102910.97;;;16.18;60.15
15314;BME280;7757;52.626;4.746;2023-05-27T02:18:55;102916.53;;;16.25;60.49
15314;BME280;7757;52.626;4.746;2023-05-27T02:21:24;102913.69;;;16.27;60.27
15314;BME280;7757;52.626;4.746;2023-05-27T02:23:49;102914.16;;;16.30;59.89
15314;BME280;7757;52.626;4.746;2023-05-27T02:26:15;102907.22;;;16.28;59.96
15314;BME280;7757;52.626;4.746;2023-05-27T02:28:40;102902.03;;;16.18;60.29
15314;BME280;7757;52.626;4.746;2023-05-27T02:31:06;102912.13;;;16.24;60.04
15314;BME280;7757;52.626;4.746;2023-05-27T02:33:31;102914.50;;;16.19;60.82
15314;BME280;7757;52.626;4.746;2023-05-27T02:35:56;102907.75;;;16.15;60.43
15314;BME280;7757;52.626;4.746;2023-05-27T02:38:22;102901.03;;;16.11;60.03
15314;BME280;7757;52.626;4.746;2023-05-27T02:40:47;102896.00;;;16.00;60.38
15314;BME280;7757;52.626;4.746;2023-05-27T02:43:13;102893.44;;;16.06;60.00
15314;BME280;7757;52.626;4.746;2023-05-27T02:45:41;102908.41;;;16.33;60.49
15314;BME280;7757;52.626;4.746;2023-05-27T02:48:07;102913.50;;;16.12;60.25
15314;BME280;7757;52.626;4.746;2023-05-27T02:50:33;102898.72;;;16.00;60.30
15314;BME280;7757;52.626;4.746;2023-05-27T02:52:58;102898.84;;;16.14;60.10
15314;BME280;7757;52.626;4.746;2023-05-27T02:55:23;102891.09;;;15.95;60.84
15314;BME280;7757;52.626;4.746;2023-05-27T02:57:52;102909.16;;;16.11;60.51
15314;BME280;7757;52.626;4.746;2023-05-27T03:00:17;102891.94;;;16.04;61.12
15314;BME280;7757;52.626;4.746;2023-05-27T03:02:43;102894.59;;;16.12;60.69
15314;BME280;7757;52.626;4.746;2023-05-27T03:05:09;102884.19;;;16.09;60.18
15314;BME280;7757;52.626;4.746;2023-05-27T03:07:34;102879.81;;;15.84;60.62
15314;BME280;7757;52.626;4.746;2023-05-27T03:09:59;102887.91;;;15.92;60.56
15314;BME280;7757;52.626;4.746;2023-05-27T03:12:25;102877.16;;;15.76;61.05
15314;BME280;7757;52.626;4.746;2023-05-27T03:14:53;102908.31;;;16.02;60.95
15314;BME280;7757;52.626;4.746;2023-05-27T03:17:19;102914.91;;;16.00;60.85
15314;BME280;7757;52.626;4.746;2023-05-27T03:19:45;102911.34;;;15.99;60.85
15314;BME280;7757;52.626;4.746;2023-05-27T03:22:13;102902.25;;;15.92;60.54
15314;BME280;7757;52.626;4.746;2023-05-27T03:24:42;102898.19;;;15.96;60.33
15314;BME280;7757;52.626;4.746;2023-05-27T03:27:08;102895.53;;;15.88;60.23
15314;BME280;7757;52.626;4.746;2023-05-27T03:29:33;102873.25;;;15.86;60.84
15314;BME280;7757;52.626;4.746;2023-05-27T03:31:59;102892.63;;;15.98;60.03
15314;BME280;7757;52.626;4.746;2023-05-27T03:34:24;102888.88;;;16.15;60.25
15314;BME280;7757;52.626;4.746;2023-05-27T03:36:50;102890.47;;;15.85;60.53
15314;BME280;7757;52.626;4.746;2023-05-27T03:39:18;102895.31;;;15.98;60.08
15314;BME280;7757;52.626;4.746;2023-05-27T03:41:44;102896.34;;;15.97;60.43
15314;BME280;7757;52.626;4.746;2023-05-27T03:44:13;102887.25;;;15.90;60.13
15314;BME280;7757;52.626;4.746;2023-05-27T03:46:38;102896.00;;;16.00;60.76
15314;BME280;7757;52.626;4.746;2023-05-27T03:49:03;102895.31;;;15.98;60.67
15314;BME280;7757;52.626;4.746;2023-05-27T03:51:29;102893.66;;;15.97;60.06
15314;BME280;7757;52.626;4.746;2023-05-27T03:53:54;102895.47;;;16.04;59.68
15314;BME280;7757;52.626;4.746;2023-05-27T03:56:23;102879.13;;;15.98;60.55
15314;BME280;7757;52.626;4.746;2023-05-27T03:58:49;102886.38;;;15.97;60.09
15314;BME280;7757;52.626;4.746;2023-05-27T04:01:18;102875.44;;;15.91;60.56
15314;BME280;7757;52.626;4.746;2023-05-27T04:03:45;102877.28;;;15.90;60.44
15314;BME280;7757;52.626;4.746;2023-05-27T04:06:17;102875.75;;;16.04;60.58
15314;BME280;7757;52.626;4.746;2023-05-27T04:08:42;102870.88;;;15.99;60.26
15314;BME280;7757;52.626;4.746;2023-05-27T04:11:11;102877.63;;;15.95;60.24
15314;BME280;7757;52.626;4.746;2023-05-27T04:13:40;102868.84;;;16.01;59.51
15314;BME280;7757;52.626;4.746;2023-05-27T04:16:06;102867.19;;;15.84;60.43
15314;BME280;7757;52.626;4.746;2023-05-27T04:18:33;102817.94;;;15.74;59.93
15314;BME280;7757;52.626;4.746;2023-05-27T04:20:59;102871.66;;;16.16;59.75
15314;BME280;7757;52.626;4.746;2023-05-27T04:23:28;102879.94;;;16.14;59.55
15314;BME280;7757;52.626;4.746;2023-05-27T04:25:56;102870.31;;;16.12;59.74
15314;BME280;7757;52.626;4.746;2023-05-27T04:28:22;102853.13;;;16.05;60.13
15314;BME280;7757;52.626;4.746;2023-05-27T04:30:50;102862.91;;;16.14;59.29
15314;BME280;7757;52.626;4.746;2023-05-27T04:33:16;102866.59;;;16.13;60.08
15314;BME280;7757;52.626;4.746;2023-05-27T04:35:42;102872.44;;;16.33;59.70
15314;BME280;7757;52.626;4.746;2023-05-27T04:38:10;102856.91;;;16.43;59.09
15314;BME280;7757;52.626;4.746;2023-05-27T04:40:35;102869.19;;;16.61;57.90
15314;BME280;7757;52.626;4.746;2023-05-27T04:43:01;102852.28;;;16.51;58.15
15314;BME280;7757;52.626;4.746;2023-05-27T04:45:29;102860.19;;;16.69;58.01
15314;BME280;7757;52.626;4.746;2023-05-27T04:47:55;102873.28;;;16.80;58.06
15314;BME280;7757;52.626;4.746;2023-05-27T04:50:26;102829.31;;;16.63;57.18
15314;BME280;7757;52.626;4.746;2023-05-27T04:52:51;102854.88;;;16.84;57.18
15314;BME280;7757;52.626;4.746;2023-05-27T04:55:21;102858.34;;;17.00;57.23
15314;BME280;7757;52.626;4.746;2023-05-27T04:57:46;102842.94;;;17.01;56.85
15314;BME280;7757;52.626;4.746;2023-05-27T05:00:12;102822.81;;;17.03;56.57
15314;BME280;7757;52.626;4.746;2023-05-27T05:02:40;102842.63;;;17.18;56.49
15314;BME280;7757;52.626;4.746;2023-05-27T05:05:08;102857.63;;;17.29;56.10
15314;BME280;7757;52.626;4.746;2023-05-27T05:07:46;102858.38;;;17.38;56.00
15314;BME280;7757;52.626;4.746;2023-05-27T05:10:11;102855.47;;;17.39;55.51
15314;BME280;7757;52.626;4.746;2023-05-27T05:12:37;102852.69;;;17.33;55.83
15314;BME280;7757;52.626;4.746;2023-05-27T05:15:04;102850.75;;;17.41;55.72
15314;BME280;7757;52.626;4.746;2023-05-27T05:17:32;102853.94;;;17.45;55.40
15314;BME280;7757;52.626;4.746;2023-05-27T05:19:58;102854.66;;;17.39;55.78
15314;BME280;7757;52.626;4.746;2023-05-27T05:22:23;102850.28;;;17.38;55.63
15314;BME280;7757;52.626;4.746;2023-05-27T05:24:49;102840.91;;;17.25;56.04
15314;BME280;7757;52.626;4.746;2023-05-27T05:27:15;102844.22;;;17.36;55.59
15314;BME280;7757;52.626;4.746;2023-05-27T05:29:44;102846.22;;;17.34;55.81
15314;BME280;7757;52.626;4.746;2023-05-27T05:32:09;102839.16;;;17.33;55.24
15314;BME280;7757;52.626;4.746;2023-05-27T05:34:38;102818.78;;;17.22;55.53
15314;BME280;7757;52.626;4.746;2023-05-27T05:37:07;102809.34;;;17.41;54.86
15314;BME280;7757;52.626;4.746;2023-05-27T05:39:32;102817.19;;;17.88;54.42
15314;BME280;7757;52.626;4.746;2023-05-27T05:42:03;102830.19;;;18.21;53.76
15314;BME280;7757;52.626;4.746;2023-05-27T05:44:32;102832.03;;;18.35;53.07
15314;BME280;7757;52.626;4.746;2023-05-27T05:46:59;102822.22;;;18.34;52.68
15314;BME280;7757;52.626;4.746;2023-05-27T05:49:24;102819.25;;;18.29;52.76
15314;BME280;7757;52.626;4.746;2023-05-27T05:51:50;102829.50;;;18.34;52.74
15314;BME280;7757;52.626;4.746;2023-05-27T05:54:18;102838.94;;;18.38;52.82
15314;BME280;7757;52.626;4.746;2023-05-27T05:56:44;102817.75;;;18.56;52.51
15314;BME280;7757;52.626;4.746;2023-05-27T05:59:12;102814.19;;;18.56;51.74
15314;BME280;7757;52.626;4.746;2023-05-27T06:01:37;102828.16;;;18.74;51.60
15314;BME280;7757;52.626;4.746;2023-05-27T06:04:03;102828.16;;;18.74;51.21
15314;BME280;7757;52.626;4.746;2023-05-27T06:06:30;102830.41;;;18.70;51.70
15314;BME280;7757;52.626;4.746;2023-05-27T06:09:04;102836.06;;;19.11;51.01
15314;BME280;7757;52.626;4.746;2023-05-27T06:11:30;102839.94;;;19.02;50.76
15314;BME280;7757;52.626;4.746;2023-05-27T06:13:59;102827.75;;;18.91;50.73
15314;BME280;7757;52.626;4.746;2023-05-27T06:16:24;102821.13;;;18.79;51.13
15314;BME280;7757;52.626;4.746;2023-05-27T06:18:50;102809.41;;;18.58;51.02
15314;BME280;7757;52.626;4.746;2023-05-27T06:21:17;102804.50;;;18.82;51.02
15314;BME280;7757;52.626;4.746;2023-05-27T06:23:42;102819.75;;;18.69;51.22
15314;BME280;7757;52.626;4.746;2023-05-27T06:26:08;102820.16;;;18.66;51.22
15314;BME280;7757;52.626;4.746;2023-05-27T06:28:33;102819.50;;;18.64;51.30
15314;BME280;7757;52.626;4.746;2023-05-27T06:30:58;102827.41;;;18.80;50.86
15314;BME280;7757;52.626;4.746;2023-05-27T06:33:24;102825.03;;;18.91;50.67
15314;BME280;7757;52.626;4.746;2023-05-27T06:35:50;102804.84;;;18.58;50.89
15314;BME280;7757;52.626;4.746;2023-05-27T06:38:15;102807.28;;;18.53;51.18
15314;BME280;7757;52.626;4.746;2023-05-27T06:40:40;102828.38;;;18.58;51.28
15314;BME280;7757;52.626;4.746;2023-05-27T06:43:12;102821.94;;;18.59;51.24
15314;BME280;7757;52.626;4.746;2023-05-27T06:45:40;102845.94;;;18.62;51.20
15314;BME280;7757;52.626;4.746;2023-05-27T06:48:09;102833.16;;;18.56;51.22
15314;BME280;7757;52.626;4.746;2023-05-27T06:50:34;102835.28;;;18.96;50.60
15314;BME280;7757;52.626;4.746;2023-05-27T06:52:59;102833.53;;;19.31;49.95
15314;BME280;7757;52.626;4.746;2023-05-27T06:55:31;102838.47;;;19.21;50.00
15314;BME280;7757;52.626;4.746;2023-05-27T06:57:59;102820.50;;;19.20;49.91
15314;BME280;7757;52.626;4.746;2023-05-27T07:00:28;102830.19;;;19.29;49.67
15314;BME280;7757;52.626;4.746;2023-05-27T07:02:53;102826.84;;;19.48;49.56
15314;BME280;7757;52.626;4.746;2023-05-27T07:05:18;102818.16;;;19.38;48.96
15314;BME280;7757;52.626;4.746;2023-05-27T07:07:44;102813.28;;;19.48;48.90
15314;BME280;7757;52.626;4.746;2023-05-27T07:10:09;102826.00;;;19.75;48.62
15314;BME280;7757;52.626;4.746;2023-05-27T07:12:35;102801.09;;;19.65;48.56
15314;BME280;7757;52.626;4.746;2023-05-27T07:15:04;102822.78;;;19.93;48.15
15314;BME280;7757;52.626;4.746;2023-05-27T07:17:29;102809.13;;;20.14;47.40
15314;BME280;7757;52.626;4.746;2023-05-27T07:19:58;102804.72;;;20.07;47.24
15314;BME280;7757;52.626;4.746;2023-05-27T07:22:26;102809.91;;;20.36;47.04
15314;BME280;7757;52.626;4.746;2023-05-27T07:24:52;102804.50;;;20.42;46.36
15314;BME280;7757;52.626;4.746;2023-05-27T07:27:20;102775.25;;;20.51;46.28
15314;BME280;7757;52.626;4.746;2023-05-27T07:29:45;102795.44;;;20.89;45.76
15314;BME280;7757;52.626;4.746;2023-05-27T07:32:11;102787.47;;;20.81;45.30
15314;BME280;7757;52.626;4.746;2023-05-27T07:34:36;102790.22;;;21.01;44.89
15314;BME280;7757;52.626;4.746;2023-05-27T07:37:02;102770.94;;;21.02;44.81
15314;BME280;7757;52.626;4.746;2023-05-27T07:39:27;102769.91;;;21.03;44.67
15314;BME280;7757;52.626;4.746;2023-05-27T07:41:52;102793.63;;;21.42;44.52
15314;BME280;7757;52.626;4.746;2023-05-27T07:44:18;102776.59;;;21.73;43.54
15314;BME280;7757;52.626;4.746;2023-05-27T07:46:44;102789.59;;;21.84;42.89
15314;BME280;7757;52.626;4.746;2023-05-27T07:49:09;102791.88;;;21.94;42.75
15314;BME280;7757;52.626;4.746;2023-05-27T07:51:34;102779.75;;;21.90;43.28
15314;BME280;7757;52.626;4.746;2023-05-27T07:54:04;102780.50;;;22.67;41.79
15314;BME280;7757;52.626;4.746;2023-05-27T07:56:33;102773.88;;;21.93;42.36
15314;BME280;7757;52.626;4.746;2023-05-27T07:58:59;102762.59;;;21.50;43.39
15314;BME280;7757;52.626;4.746;2023-05-27T08:01:25;102748.25;;;22.89;41.26
15314;BME280;7757;52.626;4.746;2023-05-27T08:03:55;102766.00;;;23.54;40.17
15314;BME280;7757;52.626;4.746;2023-05-27T08:06:21;102768.34;;;23.51;39.85
15314;BME280;7757;52.626;4.746;2023-05-27T08:08:46;102776.81;;;23.85;39.15
15314;BME280;7757;52.626;4.746;2023-05-27T08:11:12;102771.75;;;24.07;38.74
15314;BME280;7757;52.626;4.746;2023-05-27T08:13:38;102767.94;;;23.90;38.90
15314;BME280;7757;52.626;4.746;2023-05-27T08:16:03;102759.91;;;24.31;38.34
15314;BME280;7757;52.626;4.746;2023-05-27T08:18:31;102757.78;;;24.63;37.35
15314;BME280;7757;52.626;4.746;2023-05-27T08:20:57;102759.81;;;24.68;38.03
15314;BME280;7757;52.626;4.746;2023-05-27T08:23:22;102759.63;;;23.35;39.66
15314;BME280;7757;52.626;4.746;2023-05-27T08:25:47;102752.06;;;23.99;38.84
15314;BME280;7757;52.626;4.746;2023-05-27T08:28:19;102748.69;;;23.35;40.35
15314;BME280;7757;52.626;4.746;2023-05-27T08:30:44;102748.28;;;24.00;39.32
15314;BME280;7757;52.626;4.746;2023-05-27T08:33:13;102739.25;;;23.99;39.25
15314;BME280;7757;52.626;4.746;2023-05-27T08:35:38;102744.66;;;23.87;39.27
15314;BME280;7757;52.626;4.746;2023-05-27T08:38:07;102731.44;;;23.84;38.94
15314;BME280;7757;52.626;4.746;2023-05-27T08:40:32;102711.47;;;23.23;39.84
15314;BME280;7757;52.626;4.746;2023-05-27T08:42:57;102739.31;;;23.31;40.49
15314;BME280;7757;52.626;4.746;2023-05-27T08:45:23;102727.28;;;23.14;40.38
15314;BME280;7757;52.626;4.746;2023-05-27T08:47:49;102721.19;;;23.12;40.36
15314;BME280;7757;52.626;4.746;2023-05-27T08:50:21;102717.03;;;23.10;40.31
15314;BME280;7757;52.626;4.746;2023-05-27T08:52:48;102719.44;;;23.00;40.60
15314;BME280;7757;52.626;4.746;2023-05-27T08:55:16;102718.84;;;23.16;40.77
15314;BME280;7757;52.626;4.746;2023-05-27T08:57:51;102700.53;;;22.98;41.06
15314;BME280;7757;52.626;4.746;2023-05-27T09:00:17;102710.41;;;22.99;40.60
15314;BME280;7757;52.626;4.746;2023-05-27T09:02:43;102705.16;;;22.98;40.56
15314;BME280;7757;52.626;4.746;2023-05-27T09:05:11;102708.50;;;23.00;41.19
15314;BME280;7757;52.626;4.746;2023-05-27T09:07:38;102713.56;;;22.96;41.18
15314;BME280;7757;52.626;4.746;2023-05-27T09:10:04;102703.66;;;23.02;40.75
15314;BME280;7757;52.626;4.746;2023-05-27T09:12:30;102705.50;;;23.08;41.18
15314;BME280;7757;52.626;4.746;2023-05-27T09:14:56;102679.09;;;23.02;41.14
15314;BME280;7757;52.626;4.746;2023-05-27T09:17:24;102694.97;;;23.11;41.04
15314;BME280;7757;52.626;4.746;2023-05-27T09:19:50;102701.97;;;23.25;40.78
15314;BME280;7757;52.626;4.746;2023-05-27T09:22:31;102690.91;;;23.20;40.92
15314;BME280;7757;52.626;4.746;2023-05-27T09:24:57;102663.16;;;22.99;40.65
15314;BME280;7757;52.626;4.746;2023-05-27T09:27:28;102682.84;;;23.25;40.02
15314;BME280;7757;52.626;4.746;2023-05-27T09:30:05;102682.31;;;23.17;40.72
15314;BME280;7757;52.626;4.746;2023-05-27T09:32:32;102678.31;;;23.19;40.74
15314;BME280;7757;52.626;4.746;2023-05-27T09:34:58;102687.09;;;23.21;41.07
15314;BME280;7757;52.626;4.746;2023-05-27T09:37:31;102690.91;;;23.20;40.63
15314;BME280;7757;52.626;4.746;2023-05-27T09:40:15;102683.97;;;23.18;40.72
15314;BME280;7757;52.626;4.746;2023-05-27T09:42:42;102680.94;;;23.08;40.70
15314;BME280;7757;52.626;4.746;2023-05-27T09:45:11;102663.25;;;23.10;41.01
15314;BME280;7757;52.626;4.746;2023-05-27T09:47:39;102680.44;;;23.17;41.18
15314;BME280;7757;52.626;4.746;2023-05-27T09:50:15;102667.22;;;23.14;41.19
15314;BME280;7757;52.626;4.746;2023-05-27T09:52:47;102663.03;;;23.12;40.87
15314;BME280;7757;52.626;4.746;2023-05-27T09:55:14;102667.13;;;23.21;40.90
15314;BME280;7757;52.626;4.746;2023-05-27T09:57:40;102624.13;;;22.73;41.50
15314;BME280;7757;52.626;4.746;2023-05-27T10:00:07;102669.56;;;23.11;41.22
15314;BME280;7757;52.626;4.746;2023-05-27T10:02:47;102660.00;;;23.02;41.09
15314;BME280;7757;52.626;4.746;2023-05-27T10:05:14;102645.00;;;22.86;41.22
15314;BME280;7757;52.626;4.746;2023-05-27T10:07:43;102660.88;;;22.96;41.39
15314;BME280;7757;52.626;4.746;2023-05-27T10:10:16;102651.06;;;22.88;42.00
15314;BME280;7757;52.626;4.746;2023-05-27T10:12:47;102652.19;;;23.05;41.35
15314;BME280;7757;52.626;4.746;2023-05-27T10:15:27;102641.69;;;22.84;41.97
15314;BME280;7757;52.626;4.746;2023-05-27T10:18:21;102644.25;;;22.79;42.38
15314;BME280;7757;52.626;4.746;2023-05-27T10:20:49;102640.44;;;22.80;42.17
15314;BME280;7757;52.626;4.746;2023-05-27T10:23:18;102639.78;;;22.85;41.86
15314;BME280;7757;52.626;4.746;2023-05-27T10:25:56;102625.84;;;22.68;41.99
15314;BME280;7757;52.626;4.746;2023-05-27T10:28:25;102630.69;;;22.66;42.13
15314;BME280;7757;52.626;4.746;2023-05-27T10:31:03;102627.13;;;22.65;42.37
15314;BME280;7757;52.626;4.746;2023-05-27T10:33:29;102622.31;;;22.61;42.49
15314;BME280;7757;52.626;4.746;2023-05-27T10:35:56;102596.25;;;22.40;42.69
15314;BME280;7757;52.626;4.746;2023-05-27T10:38:22;102616.53;;;22.51;42.34
15314;BME280;7757;52.626;4.746;2023-05-27T10:40:47;102620.44;;;22.61;42.28
15314;BME280;7757;52.626;4.746;2023-05-27T10:43:31;102588.00;;;22.47;42.82
15314;BME280;7757;52.626;4.746;2023-05-27T10:46:07;102609.56;;;22.55;42.74
15314;BME280;7757;52.626;4.746;2023-05-27T10:48:33;102590.00;;;22.33;43.28
15314;BME280;7757;52.626;4.746;2023-05-27T10:50:59;102608.78;;;22.48;42.90
15314;BME280;7757;52.626;4.746;2023-05-27T10:53:31;102606.84;;;22.55;43.42
15314;BME280;7757;52.626;4.746;2023-05-27T10:55:58;102577.66;;;22.31;42.72
15314;BME280;7757;52.626;4.746;2023-05-27T10:58:24;102599.56;;;22.49;43.17
15314;BME280;7757;52.626;4.746;2023-05-27T11:00:52;102599.59;;;22.42;43.30
15314;BME280;7757;52.626;4.746;2023-05-27T11:03:22;102591.84;;;22.39;43.38
15314;BME280;7757;52.626;4.746;2023-05-27T11:06:00;102556.75;;;22.24;43.66
15314;BME280;7757;52.626;4.746;2023-05-27T11:08:26;102574.50;;;22.34;43.78
15314;BME280;7757;52.626;4.746;2023-05-27T11:10:58;102576.53;;;22.38;43.29
15314;BME280;7757;52.626;4.746;2023-05-27T11:13:36;102549.00;;;22.21;43.82
15314;BME280;7757;52.626;4.746;2023-05-27T11:16:03;102551.53;;;22.23;43.47
15314;BME280;7757;52.626;4.746;2023-05-27T11:18:46;102569.66;;;22.36;43.82
15314;BME280;7757;52.626;4.746;2023-05-27T11:21:16;102567.75;;;22.36;44.02
15314;BME280;7757;52.626;4.746;2023-05-27T11:23:43;102536.66;;;22.19;43.45
15314;BME280;7757;52.626;4.746;2023-05-27T11:28:45;102544.38;;;22.22;43.73
15314;BME280;7757;52.626;4.746;2023-05-27T11:31:11;102549.34;;;22.32;43.99
15314;BME280;7757;52.626;4.746;2023-05-27T11:33:46;102551.84;;;22.33;43.78
15314;BME280;7757;52.626;4.746;2023-05-27T11:36:17;102522.88;;;22.14;43.89
15314;BME280;7757;52.626;4.746;2023-05-27T11:38:52;102536.31;;;22.34;44.33
15314;BME280;7757;52.626;4.746;2023-05-27T11:41:20;102529.03;;;22.28;44.20
15314;BME280;7757;52.626;4.746;2023-05-27T11:44:03;102531.38;;;22.24;44.50
15314;BME280;7757;52.626;4.746;2023-05-27T11:46:35;102527.00;;;22.23;44.37
15314;BME280;7757;52.626;4.746;2023-05-27T11:49:02;102527.53;;;22.32;44.04
15314;BME280;7757;52.626;4.746;2023-05-27T11:51:28;102521.31;;;22.24;44.39
15314;BME280;7757;52.626;4.746;2023-05-27T11:53:55;102503.84;;;22.07;44.69
15314;BME280;7757;52.626;4.746;2023-05-27T11:56:21;102509.41;;;22.19;44.99
15314;BME280;7757;52.626;4.746;2023-05-27T11:58:49;102499.53;;;22.18;44.84
15314;BME280;7757;52.626;4.746;2023-05-27T12:01:14;102517.44;;;22.32;44.64
15314;BME280;7757;52.626;4.746;2023-05-27T12:03:40;102506.22;;;22.22;44.25
15314;BME280;7757;52.626;4.746;2023-05-27T12:06:09;102489.47;;;22.18;44.81
15314;BME280;7757;52.626;4.746;2023-05-27T12:08:40;102474.00;;;22.12;44.66
15314;BME280;7757;52.626;4.746;2023-05-27T12:11:05;102487.59;;;22.19;44.99
15314;BME280;7757;52.626;4.746;2023-05-27T12:13:31;102466.28;;;22.09;44.99
15314;BME280;7757;52.626;4.746;2023-05-27T12:16:00;102484.19;;;22.23;44.96
15314;BME280;7757;52.626;4.746;2023-05-27T12:18:25;102484.19;;;22.23;44.76
15314;BME280;7757;52.626;4.746;2023-05-27T12:20:51;102470.63;;;22.17;45.20
15314;BME280;7757;52.626;4.746;2023-05-27T12:23:18;102477.75;;;22.18;45.23
15314;BME280;7757;52.626;4.746;2023-05-27T12:25:43;102477.94;;;22.23;45.48
15314;BME280;7757;52.626;4.746;2023-05-27T12:28:09;102464.09;;;22.18;45.24
15314;BME280;7757;52.626;4.746;2023-05-27T12:30:36;102470.00;;;22.15;45.12
15314;BME280;7757;52.626;4.746;2023-05-27T12:33:05;102477.28;;;22.21;45.53
15314;BME280;7757;52.626;4.746;2023-05-27T12:35:31;102457.81;;;22.17;44.90
15314;BME280;7757;52.626;4.746;2023-05-27T12:38:00;102458.91;;;22.16;45.17
15314;BME280;7757;52.626;4.746;2023-05-27T12:40:29;102461.00;;;22.14;45.33
15314;BME280;7757;52.626;4.746;2023-05-27T12:42:57;102465.75;;;22.26;45.19
15314;BME280;7757;52.626;4.746;2023-05-27T12:45:26;102468.22;;;22.27;45.49
15314;BME280;7757;52.626;4.746;2023-05-27T12:47:52;102464.06;;;22.24;45.45
15314;BME280;7757;52.626;4.746;2023-05-27T12:50:18;102459.06;;;22.21;45.54
15314;BME280;7757;52.626;4.746;2023-05-27T12:52:44;102455.47;;;22.21;46.13
15314;BME280;7757;52.626;4.746;2023-05-27T12:55:16;102463.00;;;22.26;46.04
15314;BME280;7757;52.626;4.746;2023-05-27T12:57:50;102434.81;;;22.13;45.57
15314;BME280;7757;52.626;4.746;2023-05-27T13:00:17;102457.75;;;22.24;46.00
15314;BME280;7757;52.626;4.746;2023-05-27T13:02:44;102432.09;;;22.13;45.67
15314;BME280;7757;52.626;4.746;2023-05-27T13:05:10;102450.66;;;22.23;45.85